Time;durP1;ratioP1;P1;durP2;ratioP2;P2;SDS_P1;SDS_P2;PMS_P1;PMS_P2;Temp;Humidity;BMP_temperature;BMP_pressure;BME280_temperature;BME280_humidity;BME280_pressure;Samples;Min_cycle;Max_cycle;Signal;HPM_P1;HPM_P2
2023/01/22 00:01:32;;;;;;;7.68;3.25;;;;;;;;;;5015834;28;20041;-66
2023/01/22 00:03:59;;;;;;;6.07;2.80;;;;;;;;;;5033625;28;20083;-67
2023/01/22 00:06:25;;;;;;;8.20;3.30;;;;;;;;;;5033535;28;20038;-66
2023/01/22 00:08:51;;;;;;;9.75;4.28;;;;;;;;;;5033275;28;20041;-66
2023/01/22 00:11:18;;;;;;;7.82;3.55;;;;;;;;;;5033648;28;20104;-66
2023/01/22 00:13:44;;;;;;;10.98;3.65;;;;;;;;;;5015743;28;20042;-66
2023/01/22 00:16:12;;;;;;;4.43;2.58;;;;;;;;;;5033547;28;20045;-67
2023/01/22 00:18:38;;;;;;;7.75;3.40;;;;;;;;;;5033256;28;20116;-66
2023/01/22 00:21:04;;;;;;;8.02;4.43;;;;;;;;;;5033369;28;20143;-66
2023/01/22 00:23:31;;;;;;;8.52;3.10;;;;;;;;;;5033024;28;20041;-67
2023/01/22 00:26:02;;;;;;;8.60;3.58;;;;;;;;;;5033345;28;20049;-66
2023/01/22 00:28:28;;;;;;;13.52;4.07;;;;;;;;;;5033377;28;20449;-67
2023/01/22 00:30:58;;;;;;;8.70;4.15;;;;;;;;;;5033208;28;20037;-66
2023/01/22 00:33:24;;;;;;;8.93;3.85;;;;;;;;;;5033020;28;20045;-66
2023/01/22 00:35:50;;;;;;;7.90;4.10;;;;;;;;;;5033130;28;20378;-66
2023/01/22 00:38:16;;;;;;;12.52;4.60;;;;;;;;;;5015194;28;20121;-67
2023/01/22 00:40:42;;;;;;;12.25;4.45;;;;;;;;;;5033168;28;20469;-67
2023/01/22 00:43:07;;;;;;;7.80;3.70;;;;;;;;;;5033202;28;20033;-67
2023/01/22 00:45:33;;;;;;;10.77;4.80;;;;;;;;;;5015022;28;20128;-67
2023/01/22 00:48:00;;;;;;;9.23;4.70;;;;;;;;;;5033064;28;20439;-67
2023/01/22 00:50:26;;;;;;;10.68;4.60;;;;;;;;;;5015401;28;20091;-66
2023/01/22 00:52:52;;;;;;;10.82;4.85;;;;;;;;;;5032400;28;20047;-67
2023/01/22 00:55:18;;;;;;;8.73;4.07;;;;;;;;;;5032972;28;20496;-67
2023/01/22 00:57:44;;;;;;;13.07;5.13;;;;;;;;;;5015170;28;20045;-66
2023/01/22 01:00:11;;;;;;;11.02;4.45;;;;;;;;;;5032909;28;20128;-67
2023/01/22 01:03:25;;;;;;;9.00;3.92;;;;;;;;;;5014811;28;20049;-67
2023/01/22 01:05:23;;;;;;;11.23;4.90;;;;;;;;;;5032385;28;20056;-66
2023/01/22 01:07:49;;;;;;;10.23;5.53;;;;;;;;;;5032504;28;20061;-67
2023/01/22 01:10:15;;;;;;;9.70;4.22;;;;;;;;;;5032921;28;20060;-66
2023/01/22 01:12:41;;;;;;;9.75;4.90;;;;;;;;;;5032819;28;20037;-67
2023/01/22 01:15:07;;;;;;;8.68;4.47;;;;;;;;;;5032785;28;20037;-67
2023/01/22 01:17:34;;;;;;;8.25;4.13;;;;;;;;;;5032758;28;20042;-67
2023/01/22 01:20:00;;;;;;;8.63;4.57;;;;;;;;;;5032379;28;20038;-67
2023/01/22 01:22:25;;;;;;;7.65;4.10;;;-0.40;99.90;;;;;;5032751;28;20041;-66
2023/01/22 01:24:51;;;;;;;8.50;4.00;;;-0.50;99.90;;;;;;5032550;28;20049;-67
2023/01/22 01:27:17;;;;;;;8.63;4.75;;;-0.60;99.90;;;;;;5032671;28;20084;-67
2023/01/22 01:29:42;;;;;;;11.85;5.78;;;-0.60;99.90;;;;;;5032653;28;20056;-67
2023/01/22 01:32:08;;;;;;;9.15;3.97;;;-0.70;99.90;;;;;;5014688;28;20080;-66
2023/01/22 01:34:33;;;;;;;10.65;4.78;;;-0.70;99.90;;;;;;5032349;28;20049;-67
2023/01/22 01:36:59;;;;;;;9.52;4.60;;;-0.70;99.90;;;;;;5014622;28;20052;-67
2023/01/22 01:39:25;;;;;;;10.15;3.75;;;-0.70;99.90;;;;;;5032625;28;20477;-67
2023/01/22 01:41:50;;;;;;;17.77;5.00;;;-0.70;99.90;;;;;;5014643;28;20049;-67
2023/01/22 01:44:19;;;;;;;9.65;4.20;;;-0.60;99.90;;;;;;5032514;28;20492;-67
2023/01/22 01:46:56;;;;;;;9.10;3.63;;;-0.50;99.90;;;;;;5014457;28;20095;-67
2023/01/22 01:49:32;;;;;;;6.68;3.20;;;-0.50;99.90;;;;;;5032159;28;20037;-67
2023/01/22 01:52:06;;;;;;;7.47;3.60;;;-0.40;99.90;;;;;;5032402;28;20045;-67
2023/01/22 01:54:32;;;;;;;10.90;3.75;;;-0.30;99.90;;;;;;5032393;28;20046;-68
2023/01/22 01:57:08;;;;;;;8.15;3.60;;;-0.30;99.90;;;;;;5032389;28;20132;-67
2023/01/22 01:59:34;;;;;;;8.55;4.15;;;-0.20;99.90;;;;;;5032381;28;20440;-68
2023/01/22 02:02:02;;;;;;;9.13;3.63;;;-0.20;99.90;;;;;;5032308;28;20117;-67
2023/01/22 02:04:28;;;;;;;9.43;5.45;;;-0.10;99.90;;;;;;5033714;28;20033;-67
2023/01/22 02:06:54;;;;;;;7.20;3.80;;;-0.10;99.90;;;;;;5035653;28;20057;-67
2023/01/22 02:09:20;;;;;;;7.80;3.90;;;-0.10;99.90;;;;;;5035935;28;20076;-67
2023/01/22 02:11:46;;;;;;;9.10;3.75;;;0.00;99.90;;;;;;5035752;28;20393;-66
2023/01/22 02:14:16;;;;;;;5.50;3.42;;;0.00;99.90;;;;;;5017873;28;20038;-68
2023/01/22 02:16:42;;;;;;;10.52;4.30;;;0.10;99.90;;;;;;5035801;28;20092;-67
2023/01/22 02:19:07;;;;;;;7.05;3.53;;;0.10;99.90;;;;;;5035746;28;20481;-67
2023/01/22 02:21:34;;;;;;;7.22;3.35;;;0.20;99.90;;;;;;5035625;28;20033;-67
2023/01/22 02:24:01;;;;;;;6.15;3.40;;;0.30;99.90;;;;;;5017538;28;20409;-67
2023/01/22 02:26:28;;;;;;;5.97;3.20;;;0.30;99.90;;;;;;5017606;28;20068;-67
2023/01/22 02:28:53;;;;;;;8.93;3.78;;;0.40;99.90;;;;;;5035532;28;20033;-67
2023/01/22 02:31:19;;;;;;;6.55;3.17;;;0.30;99.90;;;;;;5017967;28;20733;-66
2023/01/22 02:33:44;;;;;;;9.10;4.07;;;0.40;99.90;;;;;;5017459;28;20042;-67
2023/01/22 02:36:10;;;;;;;6.45;3.22;;;0.40;99.90;;;;;;5035431;28;20396;-67
2023/01/22 02:38:36;;;;;;;11.48;4.45;;;0.50;99.90;;;;;;5035089;28;20452;-67
2023/01/22 02:41:02;;;;;;;10.65;4.03;;;0.50;99.90;;;;;;5035293;28;20029;-66
2023/01/22 02:43:27;;;;;;;6.65;3.47;;;0.50;99.90;;;;;;5035158;28;20108;-67
2023/01/22 02:45:53;;;;;;;8.48;3.13;;;0.50;99.90;;;;;;5034938;28;20045;-67
2023/01/22 02:48:18;;;;;;;6.40;3.00;;;0.60;99.90;;;;;;5017331;28;20037;-68
2023/01/22 02:50:45;;;;;;;4.15;2.47;;;;;;;;;;5035138;28;20475;-68
2023/01/22 02:53:11;;;;;;;6.43;2.85;;;0.70;99.90;;;;;;5017380;28;20124;-67
2023/01/22 02:55:37;;;;;;;7.07;3.22;;;0.70;99.90;;;;;;5034846;28;20464;-67
2023/01/22 02:58:03;;;;;;;5.40;2.30;;;0.70;99.90;;;;;;5035017;28;20049;-67
2023/01/22 03:00:29;;;;;;;7.03;3.03;;;0.80;99.90;;;;;;5034972;28;20041;-67
2023/01/22 03:02:55;;;;;;;4.28;2.53;;;0.70;99.90;;;;;;5016902;28;20492;-67
2023/01/22 03:05:21;;;;;;;3.85;2.33;;;0.70;99.90;;;;;;5034806;28;20037;-67
2023/01/22 03:07:47;;;;;;;5.32;2.90;;;0.90;99.90;;;;;;5034385;28;20503;-66
2023/01/22 03:10:15;;;;;;;7.15;2.67;;;0.70;99.90;;;;;;5034890;28;20045;-68
2023/01/22 03:23:39;;;;;;;4.93;2.65;;;0.90;99.90;;;;;;5034503;28;20046;-67
2023/01/22 03:26:06;;;;;;;5.82;2.55;;;0.90;99.90;;;;;;5034209;28;20121;-66
2023/01/22 03:28:31;;;;;;;4.70;2.45;;;0.70;99.90;;;;;;5034130;28;20087;-67
2023/01/22 03:30:57;;;;;;;4.20;2.05;;;0.90;99.90;;;;;;5034432;28;20033;-67
2023/01/22 03:33:23;;;;;;;8.30;2.97;;;0.90;99.90;;;;;;5034334;28;20037;-67
2023/01/22 03:35:48;;;;;;;7.13;2.40;;;0.80;99.90;;;;;;5034295;28;20477;-66
2023/01/22 03:38:14;;;;;;;5.10;2.65;;;0.90;99.90;;;;;;5016329;28;20502;-67
2023/01/22 03:40:39;;;;;;;3.95;2.58;;;0.70;99.90;;;;;;5016569;28;20065;-67
2023/01/22 03:43:05;;;;;;;5.47;2.78;;;0.80;99.90;;;;;;5034141;28;20382;-68
2023/01/22 03:45:34;;;;;;;5.05;2.45;;;0.90;99.90;;;;;;5034027;28;20129;-67
2023/01/22 03:48:01;;;;;;;4.53;2.25;;;0.70;99.90;;;;;;5034023;28;20560;-67
2023/01/22 03:50:27;;;;;;;5.22;2.30;;;0.70;99.90;;;;;;5016330;28;20124;-66
2023/01/22 03:52:52;;;;;;;4.30;2.22;;;0.90;99.90;;;;;;5033935;28;20341;-67
2023/01/22 03:55:18;;;;;;;3.20;2.33;;;0.90;99.90;;;;;;5033693;28;20041;-67
2023/01/22 03:57:44;;;;;;;4.03;2.08;;;1.10;99.90;;;;;;5015820;28;20041;-67
2023/01/22 04:00:11;;;;;;;4.80;2.33;;;0.70;99.90;;;;;;5033831;28;20168;-67
2023/01/22 04:02:37;;;;;;;5.13;2.63;;;1.00;99.90;;;;;;5033765;28;20089;-67
2023/01/22 04:05:03;;;;;;;6.50;2.33;;;0.90;99.90;;;;;;5016026;28;20046;-66
2023/01/22 04:07:28;;;;;;;4.75;2.35;;;1.10;99.90;;;;;;5033388;28;20069;-66
2023/01/22 04:09:54;;;;;;;4.47;2.28;;;0.80;99.90;;;;;;5033597;28;20044;-66
2023/01/22 04:12:19;;;;;;;4.07;2.15;;;1.20;99.90;;;;;;5033252;28;20473;-67
2023/01/22 04:14:45;;;;;;;5.85;2.20;;;1.10;99.90;;;;;;5033325;28;20037;-67
2023/01/22 04:17:11;;;;;;;4.65;2.17;;;1.00;99.90;;;;;;5033523;28;20037;-66
2023/01/22 04:19:36;;;;;;;4.05;2.53;;;1.20;99.90;;;;;;5033556;28;20045;-66
2023/01/22 04:22:02;;;;;;;4.47;2.53;;;1.20;99.90;;;;;;5033424;28;20477;-67
2023/01/22 04:24:27;;;;;;;3.22;2.08;;;1.20;99.90;;;;;;5015283;28;20493;-68
2023/01/22 04:26:53;;;;;;;4.63;2.50;;;0.90;99.90;;;;;;5033119;28;20030;-67
2023/01/22 04:29:19;;;;;;;7.70;2.35;;;0.80;99.90;;;;;;5032819;28;20048;-67
2023/01/22 04:31:44;;;;;;;3.35;1.95;;;1.20;99.90;;;;;;5033290;28;20121;-67
2023/01/22 04:34:10;;;;;;;7.18;2.20;;;0.90;99.90;;;;;;5015283;28;20037;-67
2023/01/22 04:36:35;;;;;;;5.95;1.92;;;0.90;99.90;;;;;;5032967;28;20073;-67
2023/01/22 04:39:01;;;;;;;3.63;2.10;;;1.00;99.90;;;;;;5033192;28;20037;-67
2023/01/22 04:41:27;;;;;;;7.25;2.28;;;0.80;99.90;;;;;;5033202;28;20052;-67
2023/01/22 04:43:52;;;;;;;4.07;2.22;;;1.40;99.90;;;;;;5015086;28;20045;-67
2023/01/22 04:46:18;;;;;;;4.78;2.33;;;1.00;99.90;;;;;;5033104;28;20044;-67
2023/01/22 04:48:45;;;;;;;4.00;2.10;;;0.70;99.90;;;;;;5032880;28;20477;-67
2023/01/22 04:51:11;;;;;;;4.97;2.30;;;0.70;99.90;;;;;;5033083;28;20045;-66
2023/01/22 04:53:37;;;;;;;3.00;2.10;;;0.80;99.90;;;;;;5033052;28;20120;-67
2023/01/22 04:56:03;;;;;;;7.10;2.20;;;1.00;99.90;;;;;;5033032;28;20191;-67
2023/01/22 04:58:28;;;;;;;3.65;2.10;;;1.00;99.90;;;;;;5033029;28;20120;-67
2023/01/22 05:00:55;;;;;;;3.10;2.00;;;0.90;99.90;;;;;;5015467;28;20073;-67
2023/01/22 05:03:21;;;;;;;3.22;1.90;;;1.00;99.90;;;;;;5032651;28;20437;-67
2023/01/22 05:05:46;;;;;;;3.83;2.10;;;1.00;99.90;;;;;;5032553;28;20124;-66
2023/01/22 05:08:12;;;;;;;4.22;1.85;;;1.00;99.90;;;;;;5014852;28;20045;-66
2023/01/22 05:10:38;;;;;;;5.63;2.75;;;0.90;99.90;;;;;;5032833;28;20037;-67
2023/01/22 05:13:05;;;;;;;4.43;2.30;;;0.90;99.90;;;;;;5032814;28;20080;-68
2023/01/22 05:15:31;;;;;;;4.30;1.90;;;0.90;99.90;;;;;;5032472;28;20092;-66
2023/01/22 05:17:56;;;;;;;6.55;2.15;;;1.00;99.90;;;;;;5032776;28;20042;-66
2023/01/22 05:20:22;;;;;;;5.70;2.40;;;1.10;99.90;;;;;;5014804;28;20053;-67
2023/01/22 05:22:48;;;;;;;3.65;2.17;;;0.70;99.90;;;;;;5032746;28;20053;-66
2023/01/22 05:25:14;;;;;;;3.25;1.98;;;0.70;99.90;;;;;;5032639;28;20488;-69
2023/01/22 05:27:39;;;;;;;6.47;2.83;;;0.70;99.90;;;;;;5032631;28;20087;-67
2023/01/22 05:30:06;;;;;;;3.63;1.95;;;0.90;99.90;;;;;;5032282;28;20041;-67
2023/01/22 05:32:32;;;;;;;7.22;2.47;;;0.90;99.90;;;;;;5032627;28;20104;-67
2023/01/22 05:34:57;;;;;;;6.40;1.98;;;0.80;99.90;;;;;;5032642;28;20144;-67
2023/01/22 05:37:23;;;;;;;4.50;2.25;;;0.90;99.90;;;;;;5032429;28;20251;-67
2023/01/22 05:39:48;;;;;;;3.83;2.15;;;0.90;99.90;;;;;;5034624;28;20033;-66
2023/01/22 05:42:15;;;;;;;6.97;2.53;;;0.90;99.90;;;;;;5018398;28;20037;-67
2023/01/22 05:44:41;;;;;;;3.00;1.52;;;0.80;99.90;;;;;;5036021;28;20044;-67
2023/01/22 05:47:07;;;;;;;6.10;2.08;;;0.90;99.90;;;;;;5036423;28;20037;-67
2023/01/22 05:49:33;;;;;;;3.35;2.10;;;0.60;99.90;;;;;;5036282;28;20076;-66
2023/01/22 05:51:58;;;;;;;5.28;1.98;;;0.60;99.90;;;;;;5018266;28;20068;-67
2023/01/22 05:54:24;;;;;;;3.10;1.90;;;0.70;99.90;;;;;;5036211;28;20061;-67
2023/01/22 05:56:49;;;;;;;4.15;1.83;;;0.70;99.90;;;;;;5036089;28;20061;-67
2023/01/22 05:59:15;;;;;;;3.55;2.08;;;0.80;99.90;;;;;;5018192;28;20077;-67
2023/01/22 06:01:41;;;;;;;3.55;2.25;;;0.80;99.90;;;;;;5035812;28;20474;-67
2023/01/22 06:04:06;;;;;;;5.85;2.40;;;0.60;99.90;;;;;;5035730;28;20049;-67
2023/01/22 06:06:32;;;;;;;5.28;2.08;;;0.70;99.90;;;;;;5035660;28;20044;-66
2023/01/22 06:08:58;;;;;;;4.93;1.65;;;0.70;99.90;;;;;;5035913;28;20575;-67
2023/01/22 06:11:24;;;;;;;6.63;2.30;;;0.60;99.90;;;;;;5035545;28;20037;-67
2023/01/22 06:13:50;;;;;;;5.45;2.15;;;0.70;99.90;;;;;;5018013;28;20041;-68
2023/01/22 06:16:15;;;;;;;3.70;2.10;;;0.60;99.90;;;;;;5035739;28;20428;-67
2023/01/22 06:18:41;;;;;;;4.43;2.38;;;0.70;99.90;;;;;;5035750;28;20037;-67
2023/01/22 06:21:07;;;;;;;6.25;2.15;;;0.70;99.90;;;;;;5035460;28;20049;-67
2023/01/22 06:23:33;;;;;;;5.57;2.30;;;0.70;99.90;;;;;;5035227;28;20048;-68
2023/01/22 06:26:01;;;;;;;3.90;2.13;;;0.70;99.90;;;;;;5035581;28;20030;-67
2023/01/22 06:28:27;;;;;;;3.35;1.88;;;0.70;99.90;;;;;;5035569;28;20037;-66
2023/01/22 06:30:56;;;;;;;3.25;1.90;;;0.70;99.90;;;;;;5035476;28;20048;-68
2023/01/22 06:33:22;;;;;;;2.78;1.75;;;0.70;99.90;;;;;;5035502;28;20045;-67
2023/01/22 06:35:55;;;;;;;2.15;1.67;;;0.60;99.90;;;;;;5035319;28;20128;-67
2023/01/22 06:38:21;;;;;;;6.13;2.38;;;0.60;99.90;;;;;;5035071;28;20033;-67
2023/01/22 06:40:54;;;;;;;3.63;2.15;;;0.60;99.90;;;;;;5035402;28;20064;-66
2023/01/22 06:43:20;;;;;;;6.55;1.88;;;0.70;99.90;;;;;;5035387;28;20041;-67
2023/01/22 06:45:46;;;;;;;4.40;2.13;;;0.60;99.90;;;;;;5035231;28;20448;-67
2023/01/22 06:48:11;;;;;;;4.63;2.22;;;0.60;99.90;;;;;;5035229;28;20068;-67
2023/01/22 06:50:37;;;;;;;4.00;1.98;;;0.70;99.90;;;;;;5034253;28;20034;-67
2023/01/22 06:53:03;;;;;;;5.07;2.00;;;0.70;99.90;;;;;;5035125;28;20424;-67
2023/01/22 06:55:28;;;;;;;2.63;1.98;;;0.60;99.90;;;;;;5017033;28;20128;-67
2023/01/22 06:57:55;;;;;;;3.53;2.10;;;0.50;99.90;;;;;;5035073;28;20128;-68
2023/01/22 07:00:21;;;;;;;6.95;2.55;;;0.60;99.90;;;;;;5034691;28;20088;-67
2023/01/22 07:02:47;;;;;;;7.63;3.25;;;0.60;99.90;;;;;;5017253;28;20177;-67
2023/01/22 07:05:14;;;;;;;3.42;2.20;;;0.80;99.90;;;;;;5034777;28;20116;-67
2023/01/22 07:07:40;;;;;;;3.90;2.30;;;0.60;99.90;;;;;;5016706;28;20058;-67
2023/01/22 07:10:07;;;;;;;8.25;2.15;;;0.60;99.90;;;;;;5034518;28;20095;-67
2023/01/22 07:12:32;;;;;;;2.65;1.70;;;0.60;99.90;;;;;;5034789;28;20033;-66
2023/01/22 07:14:58;;;;;;;5.13;2.17;;;0.70;99.90;;;;;;5034658;28;20496;-67
2023/01/22 07:17:23;;;;;;;3.10;2.08;;;0.70;99.90;;;;;;5034444;28;20080;-67
2023/01/22 07:19:49;;;;;;;4.22;1.90;;;0.80;99.90;;;;;;5034657;28;20120;-67
2023/01/22 07:22:15;;;;;;;2.83;2.00;;;0.70;99.90;;;;;;5034629;28;20044;-67
2023/01/22 07:24:40;;;;;;;3.88;2.40;;;0.70;99.90;;;;;;5034098;28;20055;-67
2023/01/22 07:27:06;;;;;;;4.53;2.22;;;0.70;99.90;;;;;;5034549;28;20091;-66
2023/01/22 07:29:31;;;;;;;3.97;2.28;;;0.70;99.90;;;;;;5034458;28;20038;-66
2023/01/22 07:31:57;;;;;;;4.28;2.47;;;0.60;99.90;;;;;;5034431;28;20041;-66
2023/01/22 07:34:22;;;;;;;4.32;2.20;;;0.80;99.90;;;;;;5016576;28;20091;-66
2023/01/22 07:36:48;;;;;;;3.13;2.10;;;0.60;99.90;;;;;;5016305;28;20077;-65
2023/01/22 07:39:13;;;;;;;4.60;2.20;;;0.70;99.90;;;;;;5016277;28;20049;-67
2023/01/22 07:41:39;;;;;;;4.22;1.98;;;0.80;99.90;;;;;;5016258;28;20049;-65
2023/01/22 07:44:06;;;;;;;4.45;2.40;;;0.70;99.90;;;;;;5034108;28;20397;-64
2023/01/22 07:46:33;;;;;;;3.80;2.38;;;0.70;99.90;;;;;;5033386;28;20045;-66
2023/01/22 07:48:59;;;;;;;4.07;2.08;;;0.80;99.90;;;;;;5033139;28;20034;-65
2023/01/22 07:51:25;;;;;;;4.55;1.95;;;0.70;99.90;;;;;;5033090;28;20060;-66
2023/01/22 07:53:50;;;;;;;6.63;2.28;;;0.70;99.90;;;;;;5033004;28;20037;-66
2023/01/22 07:56:18;;;;;;;5.43;2.28;;;0.70;99.90;;;;;;5032927;28;20052;-67
2023/01/22 07:58:44;;;;;;;4.35;2.03;;;0.70;99.90;;;;;;5014974;28;20577;-65
2023/01/22 08:01:10;;;;;;;6.20;2.97;;;0.70;99.90;;;;;;5032672;28;20087;-65
2023/01/22 08:03:37;;;;;;;3.65;2.08;;;0.70;99.90;;;;;;5032696;28;20069;-66
2023/01/22 08:06:11;;;;;;;3.63;2.42;;;0.80;99.90;;;;;;5032752;28;20064;-66
2023/01/22 08:08:37;;;;;;;3.33;2.08;;;0.70;99.90;;;;;;5014706;28;20148;-67
2023/01/22 08:11:03;;;;;;;3.55;1.90;;;0.70;99.90;;;;;;5032435;28;20045;-67
2023/01/22 08:13:28;;;;;;;5.28;2.35;;;0.70;99.90;;;;;;5032615;28;20041;-66
2023/01/22 08:15:54;;;;;;;6.25;2.72;;;0.80;99.90;;;;;;5032561;28;20033;-66
2023/01/22 08:18:20;;;;;;;5.90;2.33;;;1.00;99.90;;;;;;5032257;28;20036;-66
2023/01/22 08:20:46;;;;;;;3.80;2.10;;;0.80;99.90;;;;;;5014954;28;20052;-66
2023/01/22 08:23:11;;;;;;;3.75;2.30;;;0.90;99.90;;;;;;5032464;28;20040;-66
2023/01/22 08:25:37;;;;;;;5.57;2.38;;;0.90;99.90;;;;;;5032721;28;20401;-67
2023/01/22 08:28:04;;;;;;;4.70;2.65;;;0.90;99.90;;;;;;5014388;28;20048;-66
2023/01/22 08:30:33;;;;;;;3.83;2.30;;;0.90;99.90;;;;;;5032433;28;20427;-65
2023/01/22 08:33:01;;;;;;;3.10;2.03;;;0.90;99.90;;;;;;5032482;28;20055;-67
2023/01/22 08:35:27;;;;;;;2.92;2.00;;;1.00;99.90;;;;;;5032304;28;20044;-68
2023/01/22 08:37:56;;;;;;;4.72;2.30;;;0.80;99.90;;;;;;5032319;28;20484;-65
2023/01/22 08:40:22;;;;;;;3.58;1.83;;;0.80;99.90;;;;;;5014512;28;20489;-66
2023/01/22 08:42:51;;;;;;;6.43;2.42;;;0.90;99.90;;;;;;5032564;28;20044;-66
2023/01/22 08:45:17;;;;;;;3.90;2.35;;;0.80;99.90;;;;;;5032176;28;20041;-66
2023/01/22 08:47:43;;;;;;;4.97;2.20;;;0.80;99.90;;;;;;5032126;28;20546;-66
2023/01/22 08:50:09;;;;;;;5.38;2.38;;;0.90;99.90;;;;;;5014267;28;20107;-66
2023/01/22 08:52:34;;;;;;;4.65;2.72;;;0.90;99.90;;;;;;5032224;28;20041;-66
2023/01/22 08:55:00;;;;;;;8.65;2.63;;;0.90;99.90;;;;;;5031760;28;20053;-66
2023/01/22 08:57:26;;;;;;;3.60;2.20;;;1.00;99.90;;;;;;5014163;28;20033;-66
2023/01/22 08:59:51;;;;;;;3.67;2.15;;;1.00;99.90;;;;;;5014048;28;20507;-66
2023/01/22 09:02:17;;;;;;;4.68;3.03;;;1.00;99.90;;;;;;5031705;28;20559;-67
2023/01/22 09:04:42;;;;;;;5.22;3.08;;;1.00;99.90;;;;;;5031929;28;20080;-66
2023/01/22 09:07:09;;;;;;;4.40;2.65;;;1.10;99.90;;;;;;5031826;28;20061;-66
2023/01/22 09:09:35;;;;;;;5.05;2.83;;;1.10;99.90;;;;;;5013900;28;20412;-66
2023/01/22 09:12:01;;;;;;;5.57;2.85;;;1.10;99.90;;;;;;5014470;28;20037;-66
2023/01/22 09:14:26;;;;;;;6.85;3.13;;;1.20;99.90;;;;;;5033563;28;20409;-65
2023/01/22 09:16:52;;;;;;;4.28;3.00;;;1.30;99.90;;;;;;5017947;28;20366;-66
2023/01/22 09:19:18;;;;;;;4.32;2.80;;;1.40;99.90;;;;;;5035660;28;20058;-67
2023/01/22 09:21:43;;;;;;;4.43;3.00;;;1.50;99.90;;;;;;5018257;28;20397;-67
2023/01/22 09:24:09;;;;;;;4.20;2.70;;;;;;;;;;5035848;28;20041;-67
2023/01/22 09:26:35;;;;;;;5.00;2.95;;;;;;;;;;5035610;28;20052;-67
2023/01/22 09:29:04;;;;;;;5.80;3.25;;;;;;;;;;5035765;28;20457;-66
2023/01/22 09:31:31;;;;;;;6.18;2.85;;;1.80;99.90;;;;;;5035704;28;20472;-66
2023/01/22 09:33:57;;;;;;;4.85;2.78;;;;;;;;;;5035442;28;20124;-65
2023/01/22 09:36:23;;;;;;;3.97;2.42;;;;;;;;;;5035633;28;20473;-66
2023/01/22 09:38:49;;;;;;;5.80;3.03;;;;;;;;;;5035583;28;20046;-65
2023/01/22 09:41:25;;;;;;;5.65;2.50;;;;;;;;;;5017902;28;20037;-66
2023/01/22 09:44:00;;;;;;;5.10;2.22;;;;;;;;;;5017425;28;20139;-65
2023/01/22 09:46:33;;;;;;;5.60;2.45;;;;;;;;;;5035514;28;20143;-66
2023/01/22 09:49:07;;;;;;;5.65;3.05;;;;;;;;;;5035426;28;20085;-66
2023/01/22 09:51:33;;;;;;;4.13;2.53;;;;;;;;;;5017314;28;20160;-67
2023/01/22 09:54:00;;;;;;;5.13;3.13;;;;;;;;;;5035305;28;20049;-67
2023/01/22 09:56:32;;;;;;;4.32;2.60;;;;;;;;;;5034801;28;20092;-67
2023/01/22 09:58:59;;;;;;;4.25;2.65;;;;;;;;;;5035195;28;20049;-66
2023/01/22 10:01:26;;;;;;;4.15;2.38;;;;;;;;;;5001062;28;20049;-66
2023/01/22 10:03:54;;;;;;;5.70;2.58;;;;;;;;;;5000666;28;20111;-67
2023/01/22 10:06:21;;;;;;;3.17;2.45;;;;;;;;;;5035136;28;20389;-67
2023/01/22 10:08:50;;;;;;;4.20;2.55;;;;;;;;;;5016887;28;20119;-67
2023/01/22 10:11:17;;;;;;;4.00;2.13;;;;;;;;;;5017126;28;20051;-67
2023/01/22 10:13:43;;;;;;;3.20;2.30;;;;;;;;;;5034996;28;20148;-69
2023/01/22 10:16:10;;;;;;;4.90;3.05;;;;;;;;;;5034985;28;20072;-67
2023/01/22 10:18:39;;;;;;;4.82;2.20;;;;;;;;;;5016901;28;20045;-67
2023/01/22 10:21:11;;;;;;;3.40;2.13;;;;;;;;;;5016830;28;20042;-68
2023/01/22 10:23:37;;;;;;;7.68;3.13;;;;;;;;;;5034813;28;20037;-67
2023/01/22 10:26:07;;;;;;;6.10;3.28;;;;;;;;;;5033401;28;20044;-68
2023/01/22 10:28:33;;;;;;;5.38;2.65;;;;;;;;;;5016954;28;20142;-68
2023/01/22 10:30:59;;;;;;;3.33;2.38;;;;;;;;;;5034617;28;20041;-67
2023/01/22 10:33:25;;;;;;;5.47;2.78;;;;;;;;;;5016621;28;20102;-68
2023/01/22 10:35:55;;;;;;;2.80;2.03;;;;;;;;;;5034289;28;20057;-68
2023/01/22 10:38:29;;;;;;;4.43;2.42;;;;;;;;;;5034247;28;20049;-67
2023/01/22 10:41:00;;;;;;;7.10;2.45;;;;;;;;;;5034412;28;20052;-67
2023/01/22 10:43:37;;;;;;;6.93;3.42;;;;;;;;;;5034540;28;20041;-66
2023/01/22 10:46:15;;;;;;;6.45;3.08;;;;;;;;;;5034014;28;20049;-67
2023/01/22 10:48:41;;;;;;;6.15;2.60;;;;;;;;;;5034284;28;20496;-67
2023/01/22 10:51:12;;;;;;;6.43;3.58;;;;;;;;;;5034235;28;20037;-66
2023/01/22 10:53:44;;;;;;;7.47;3.75;;;;;;;;;;5034320;28;20142;-70
2023/01/22 10:56:10;;;;;;;4.20;2.80;;;;;;;;;;5016151;28;20041;-66
2023/01/22 10:58:38;;;;;;;4.90;3.30;;;;;;;;;;5033894;28;20037;-67
2023/01/22 11:01:18;;;;;;;4.72;3.45;;;2.30;99.90;;;;;;5015996;28;20049;-66
2023/01/22 11:03:44;;;;;;;7.75;3.22;;;2.30;99.90;;;;;;5033618;28;20095;-67
2023/01/22 11:06:16;;;;;;;5.68;2.80;;;2.30;99.90;;;;;;5034063;28;20361;-67
2023/01/22 11:09:10;;;;;;;5.63;2.97;;;2.20;99.90;;;;;;5015638;28;20054;-67
2023/01/22 11:11:43;;;;;;;4.60;3.33;;;2.30;99.90;;;;;;5033910;28;20477;-66
2023/01/22 11:14:27;;;;;;;3.75;2.55;;;2.30;99.90;;;;;;5015748;28;20046;-67
2023/01/22 11:16:58;;;;;;;3.42;2.35;;;2.30;99.90;;;;;;5033707;28;20080;-68
2023/01/22 11:19:32;;;;;;;10.50;4.03;;;2.30;99.90;;;;;;5033847;28;20123;-66
2023/01/22 11:21:58;;;;;;;6.45;3.33;;;2.30;99.90;;;;;;5033600;28;20056;-66
2023/01/22 11:24:41;;;;;;;6.25;3.25;;;2.30;99.90;;;;;;5033642;28;20104;-67
2023/01/22 11:27:13;;;;;;;4.30;2.78;;;2.30;99.90;;;;;;5033609;28;20041;-66
2023/01/22 11:29:57;;;;;;;6.70;3.97;;;2.40;99.90;;;;;;5015523;28;20128;-67
2023/01/22 11:32:23;;;;;;;5.05;3.25;;;2.40;99.90;;;;;;5033520;28;20045;-66
2023/01/22 11:35:00;;;;;;;5.07;3.22;;;2.50;99.90;;;;;;5033513;28;20459;-66
2023/01/22 11:37:45;;;;;;;3.45;2.63;;;2.50;99.90;;;;;;5015033;28;20049;-67
2023/01/22 11:40:14;;;;;;;4.82;3.33;;;2.50;99.90;;;;;;5033368;28;20488;-67
2023/01/22 11:42:46;;;;;;;5.03;3.10;;;2.50;99.90;;;;;;5033308;28;20160;-67
2023/01/22 11:45:39;;;;;;;4.63;3.13;;;2.50;99.90;;;;;;5033212;28;20053;-67
2023/01/22 11:48:18;;;;;;;3.33;2.60;;;2.50;99.90;;;;;;5015187;28;20089;-67
2023/01/22 11:50:58;;;;;;;5.10;3.33;;;2.50;99.90;;;;;;5033007;28;20110;-67
2023/01/22 11:53:48;;;;;;;12.03;4.37;;;2.50;99.90;;;;;;5033225;28;20038;-67
2023/01/22 11:56:25;;;;;;;7.18;3.60;;;2.40;99.90;;;;;;5032774;28;20041;-67
2023/01/22 11:58:56;;;;;;;4.50;2.88;;;2.40;99.90;;;;;;5032758;28;20060;-68
2023/01/22 12:01:52;;;;;;;6.10;3.53;;;2.50;99.90;;;;;;5032958;28;20065;-65
2023/01/22 12:04:38;;;;;;;4.10;2.67;;;2.50;99.90;;;;;;5015066;28;20045;-67
2023/01/22 12:07:35;;;;;;;4.72;3.08;;;2.50;99.90;;;;;;5014898;28;20083;-67
2023/01/22 12:10:22;;;;;;;5.22;2.85;;;2.40;99.90;;;;;;5024200;28;20091;-67
2023/01/22 12:13:00;;;;;;;5.90;2.80;;;2.40;99.90;;;;;;5032790;28;20124;-67
2023/01/22 12:15:56;;;;;;;6.65;3.40;;;2.40;99.90;;;;;;5015069;28;20111;-67
2023/01/22 12:18:36;;;;;;;5.43;3.30;;;2.40;99.90;;;;;;5032700;28;20396;-67
2023/01/22 12:21:08;;;;;;;4.28;3.00;;;2.40;99.90;;;;;;5032645;28;20116;-67
2023/01/22 12:23:48;;;;;;;6.18;3.28;;;2.30;99.90;;;;;;5014830;28;20054;-68
2023/01/22 12:26:31;;;;;;;6.03;2.67;;;2.40;99.90;;;;;;5032548;28;20420;-67
2023/01/22 12:29:22;;;;;;;4.93;2.50;;;2.40;99.90;;;;;;5032541;28;20041;-67
2023/01/22 12:31:57;;;;;;;3.63;2.47;;;2.40;99.90;;;;;;5014747;28;20044;-67
2023/01/22 12:34:33;;;;;;;4.28;2.90;;;2.40;99.90;;;;;;5014380;28;20041;-67
2023/01/22 12:37:00;;;;;;;3.83;2.70;;;2.40;99.90;;;;;;5032417;28;20041;-67
2023/01/22 12:39:50;;;;;;;4.57;2.35;;;2.40;99.90;;;;;;5014643;28;20056;-67
2023/01/22 12:42:31;;;;;;;4.38;2.30;;;2.40;99.90;;;;;;4987249;28;20053;-67
2023/01/22 12:45:29;;;;;;;5.90;2.75;;;2.40;99.90;;;;;;5032970;28;20084;-68
2023/01/22 12:48:04;;;;;;;5.78;2.85;;;2.40;99.90;;;;;;5006554;28;20050;-68
2023/01/22 12:50:29;;;;;;;4.00;2.65;;;2.40;99.90;;;;;;5014315;28;20041;-67
2023/01/22 12:53:23;;;;;;;5.68;2.33;;;2.40;99.90;;;;;;5032353;28;20041;-67
2023/01/22 12:56:09;;;;;;;5.63;2.92;;;2.50;99.90;;;;;;5032330;28;20435;-67
2023/01/22 12:58:37;;;;;;;5.97;2.88;;;2.50;99.90;;;;;;5032350;28;20413;-67
2023/01/22 13:01:22;;;;;;;7.60;2.72;;;2.50;99.90;;;;;;5014647;28;20124;-67
2023/01/22 13:04:26;;;;;;;7.20;3.42;;;2.40;99.90;;;;;;5032781;28;20034;-67
2023/01/22 13:07:03;;;;;;;4.15;2.33;;;2.50;99.90;;;;;;4985129;28;20057;-67
2023/01/22 13:09:35;;;;;;;6.60;2.53;;;2.50;99.90;;;;;;5032871;28;20477;-67
2023/01/22 13:12:24;;;;;;;7.32;2.40;;;2.50;99.90;;;;;;5015061;28;20037;-67
2023/01/22 13:14:50;;;;;;;6.30;2.90;;;2.50;99.90;;;;;;5014720;28;20420;-67
2023/01/22 13:17:23;;;;;;;5.05;2.88;;;2.50;99.90;;;;;;5032867;28;20045;-66
2023/01/22 13:19:50;;;;;;;4.25;2.38;;;2.50;99.90;;;;;;5014969;28;20044;-67
2023/01/22 13:22:21;;;;;;;5.25;2.63;;;2.50;99.90;;;;;;5032734;28;20048;-68
2023/01/22 13:24:51;;;;;;;4.53;2.53;;;2.50;99.90;;;;;;4998321;28;20049;-67
2023/01/22 13:27:24;;;;;;;4.82;2.22;;;2.50;99.90;;;;;;5032689;28;20038;-67
2023/01/22 13:29:50;;;;;;;3.20;2.10;;;3.00;99.90;;;;;;5032665;28;20053;-68
2023/01/22 13:32:18;;;;;;;4.22;2.40;;;2.50;99.90;;;;;;5032724;28;20034;-67
2023/01/22 13:34:44;;;;;;;3.75;2.28;;;2.50;99.90;;;;;;5032451;28;20567;-66
2023/01/22 13:37:24;;;;;;;2.78;1.67;;;2.50;99.90;;;;;;5032641;28;20069;-67